sensor_id;sensor_type;location;lat;lon;timestamp;P1;durP1;ratioP1;P2;durP2;ratioP2
9821;SDS011;4950;46.042;14.472;2023-07-02T00:00:03;11.32;;;6.72;;
9821;SDS011;4950;46.042;14.472;2023-07-02T00:02:32;9.57;;;6.60;;
9821;SDS011;4950;46.042;14.472;2023-07-02T00:05:00;13.35;;;6.80;;
9821;SDS011;4950;46.042;14.472;2023-07-02T00:07:26;9.63;;;6.93;;
9821;SDS011;4950;46.042;14.472;2023-07-02T00:09:53;11.88;;;7.57;;
9821;SDS011;4950;46.042;14.472;2023-07-02T00:12:20;11.85;;;6.32;;
9821;SDS011;4950;46.042;14.472;2023-07-02T00:14:47;13.75;;;6.65;;
9821;SDS011;4950;46.042;14.472;2023-07-02T00:17:14;9.57;;;6.55;;
9821;SDS011;4950;46.042;14.472;2023-07-02T00:19:41;11.18;;;5.93;;
9821;SDS011;4950;46.042;14.472;2023-07-02T00:22:09;8.55;;;5.60;;
9821;SDS011;4950;46.042;14.472;2023-07-02T00:24:36;8.95;;;5.93;;
9821;SDS011;4950;46.042;14.472;2023-07-02T00:27:02;8.50;;;5.82;;
9821;SDS011;4950;46.042;14.472;2023-07-02T00:29:30;8.18;;;6.10;;
9821;SDS011;4950;46.042;14.472;2023-07-02T00:31:57;8.05;;;6.18;;
9821;SDS011;4950;46.042;14.472;2023-07-02T00:34:23;12.63;;;5.88;;
9821;SDS011;4950;46.042;14.472;2023-07-02T00:36:50;9.70;;;5.90;;
9821;SDS011;4950;46.042;14.472;2023-07-02T00:39:18;9.95;;;6.40;;
9821;SDS011;4950;46.042;14.472;2023-07-02T00:41:45;9.57;;;6.28;;
9821;SDS011;4950;46.042;14.472;2023-07-02T00:44:12;7.90;;;6.18;;
9821;SDS011;4950;46.042;14.472;2023-07-02T00:46:39;9.20;;;6.10;;
9821;SDS011;4950;46.042;14.472;2023-07-02T00:49:05;8.57;;;6.43;;
9821;SDS011;4950;46.042;14.472;2023-07-02T00:51:34;9.25;;;6.72;;
9821;SDS011;4950;46.042;14.472;2023-07-02T00:54:02;10.98;;;6.18;;
9821;SDS011;4950;46.042;14.472;2023-07-02T00:56:30;8.38;;;5.82;;
9821;SDS011;4950;46.042;14.472;2023-07-02T00:58:57;8.90;;;6.72;;
9821;SDS011;4950;46.042;14.472;2023-07-02T01:01:26;8.73;;;6.45;;
9821;SDS011;4950;46.042;14.472;2023-07-02T01:06:24;8.35;;;5.97;;
9821;SDS011;4950;46.042;14.472;2023-07-02T01:08:53;9.77;;;6.07;;
9821;SDS011;4950;46.042;14.472;2023-07-02T01:11:21;10.55;;;6.22;;
9821;SDS011;4950;46.042;14.472;2023-07-02T01:13:53;10.50;;;6.10;;
9821;SDS011;4950;46.042;14.472;2023-07-02T01:16:24;8.85;;;6.28;;
9821;SDS011;4950;46.042;14.472;2023-07-02T01:18:51;11.07;;;6.03;;
9821;SDS011;4950;46.042;14.472;2023-07-02T01:21:22;8.45;;;6.13;;
9821;SDS011;4950;46.042;14.472;2023-07-02T01:23:50;14.70;;;6.35;;
9821;SDS011;4950;46.042;14.472;2023-07-02T01:26:17;11.25;;;6.25;;
9821;SDS011;4950;46.042;14.472;2023-07-02T01:28:45;10.80;;;5.55;;
9821;SDS011;4950;46.042;14.472;2023-07-02T01:31:11;9.40;;;6.00;;
9821;SDS011;4950;46.042;14.472;2023-07-02T01:33:38;8.93;;;5.55;;
9821;SDS011;4950;46.042;14.472;2023-07-02T01:36:05;9.63;;;6.28;;
9821;SDS011;4950;46.042;14.472;2023-07-02T01:38:33;15.52;;;6.40;;
9821;SDS011;4950;46.042;14.472;2023-07-02T01:41:00;13.52;;;5.90;;
9821;SDS011;4950;46.042;14.472;2023-07-02T01:43:27;8.93;;;5.72;;
9821;SDS011;4950;46.042;14.472;2023-07-02T01:45:54;13.07;;;6.93;;
9821;SDS011;4950;46.042;14.472;2023-07-02T01:48:21;10.25;;;6.43;;
9821;SDS011;4950;46.042;14.472;2023-07-02T01:50:47;9.07;;;6.10;;
9821;SDS011;4950;46.042;14.472;2023-07-02T01:53:14;9.00;;;6.82;;
9821;SDS011;4950;46.042;14.472;2023-07-02T01:55:42;13.63;;;6.90;;
9821;SDS011;4950;46.042;14.472;2023-07-02T01:58:09;13.68;;;6.70;;
9821;SDS011;4950;46.042;14.472;2023-07-02T02:00:36;9.63;;;6.50;;
9821;SDS011;4950;46.042;14.472;2023-07-02T02:03:02;10.52;;;6.45;;
9821;SDS011;4950;46.042;14.472;2023-07-02T02:05:30;13.38;;;8.07;;
9821;SDS011;4950;46.042;14.472;2023-07-02T02:07:57;10.70;;;7.07;;
9821;SDS011;4950;46.042;14.472;2023-07-02T02:10:24;11.45;;;7.28;;
9821;SDS011;4950;46.042;14.472;2023-07-02T02:12:52;9.40;;;7.05;;
9821;SDS011;4950;46.042;14.472;2023-07-02T02:15:18;12.63;;;7.20;;
9821;SDS011;4950;46.042;14.472;2023-07-02T02:17:45;12.68;;;6.43;;
9821;SDS011;4950;46.042;14.472;2023-07-02T02:20:12;9.73;;;6.47;;
9821;SDS011;4950;46.042;14.472;2023-07-02T02:22:39;11.93;;;7.15;;
9821;SDS011;4950;46.042;14.472;2023-07-02T02:25:06;11.07;;;7.43;;
9821;SDS011;4950;46.042;14.472;2023-07-02T02:27:33;12.98;;;7.50;;
9821;SDS011;4950;46.042;14.472;2023-07-02T02:30:01;9.10;;;6.43;;
9821;SDS011;4950;46.042;14.472;2023-07-02T02:32:28;12.80;;;7.63;;
9821;SDS011;4950;46.042;14.472;2023-07-02T02:34:55;13.10;;;7.82;;
9821;SDS011;4950;46.042;14.472;2023-07-02T02:37:21;10.82;;;8.02;;
9821;SDS011;4950;46.042;14.472;2023-07-02T02:39:48;11.73;;;7.53;;
9821;SDS011;4950;46.042;14.472;2023-07-02T02:42:15;15.60;;;8.27;;
9821;SDS011;4950;46.042;14.472;2023-07-02T02:44:42;11.65;;;7.50;;
9821;SDS011;4950;46.042;14.472;2023-07-02T02:47:10;10.45;;;7.03;;
9821;SDS011;4950;46.042;14.472;2023-07-02T02:49:37;9.25;;;5.90;;
9821;SDS011;4950;46.042;14.472;2023-07-02T02:52:04;9.75;;;5.93;;
9821;SDS011;4950;46.042;14.472;2023-07-02T02:54:31;10.77;;;5.90;;
9821;SDS011;4950;46.042;14.472;2023-07-02T02:56:58;8.85;;;5.47;;
9821;SDS011;4950;46.042;14.472;2023-07-02T02:59:25;8.25;;;5.47;;
9821;SDS011;4950;46.042;14.472;2023-07-02T03:01:51;9.05;;;5.90;;
9821;SDS011;4950;46.042;14.472;2023-07-02T03:04:20;14.65;;;6.05;;
9821;SDS011;4950;46.042;14.472;2023-07-02T03:06:50;8.27;;;5.43;;
9821;SDS011;4950;46.042;14.472;2023-07-02T03:09:17;9.65;;;6.88;;
9821;SDS011;4950;46.042;14.472;2023-07-02T03:11:44;9.60;;;5.93;;
9821;SDS011;4950;46.042;14.472;2023-07-02T03:14:12;8.20;;;5.43;;
9821;SDS011;4950;46.042;14.472;2023-07-02T03:16:39;11.38;;;6.82;;
9821;SDS011;4950;46.042;14.472;2023-07-02T03:19:06;9.48;;;6.00;;
9821;SDS011;4950;46.042;14.472;2023-07-02T03:21:34;9.63;;;6.65;;
9821;SDS011;4950;46.042;14.472;2023-07-02T03:24:00;14.40;;;7.90;;
9821;SDS011;4950;46.042;14.472;2023-07-02T03:26:27;13.13;;;7.97;;
9821;SDS011;4950;46.042;14.472;2023-07-02T03:28:54;12.77;;;8.55;;
9821;SDS011;4950;46.042;14.472;2023-07-02T03:31:20;13.13;;;8.93;;
9821;SDS011;4950;46.042;14.472;2023-07-02T03:33:47;15.35;;;9.02;;
9821;SDS011;4950;46.042;14.472;2023-07-02T03:36:14;13.48;;;8.27;;
9821;SDS011;4950;46.042;14.472;2023-07-02T03:38:42;15.02;;;8.77;;
9821;SDS011;4950;46.042;14.472;2023-07-02T03:41:08;14.47;;;7.97;;
9821;SDS011;4950;46.042;14.472;2023-07-02T03:43:35;10.52;;;7.45;;
9821;SDS011;4950;46.042;14.472;2023-07-02T03:46:02;13.48;;;8.10;;
9821;SDS011;4950;46.042;14.472;2023-07-02T03:48:29;10.40;;;7.68;;
9821;SDS011;4950;46.042;14.472;2023-07-02T03:50:55;9.43;;;6.28;;
9821;SDS011;4950;46.042;14.472;2023-07-02T03:53:22;11.40;;;7.50;;
9821;SDS011;4950;46.042;14.472;2023-07-02T03:55:50;10.75;;;7.50;;
9821;SDS011;4950;46.042;14.472;2023-07-02T03:58:17;11.20;;;7.53;;
9821;SDS011;4950;46.042;14.472;2023-07-02T04:00:43;10.50;;;7.50;;
9821;SDS011;4950;46.042;14.472;2023-07-02T04:03:10;11.15;;;7.22;;
9821;SDS011;4950;46.042;14.472;2023-07-02T04:05:39;11.00;;;8.07;;
9821;SDS011;4950;46.042;14.472;2023-07-02T04:08:06;10.63;;;7.50;;
9821;SDS011;4950;46.042;14.472;2023-07-02T04:10:33;13.65;;;7.35;;
9821;SDS011;4950;46.042;14.472;2023-07-02T04:13:01;17.10;;;8.00;;
9821;SDS011;4950;46.042;14.472;2023-07-02T04:15:28;10.00;;;7.13;;
9821;SDS011;4950;46.042;14.472;2023-07-02T04:17:55;12.82;;;8.45;;
9821;SDS011;4950;46.042;14.472;2023-07-02T04:20:22;17.02;;;7.85;;
9821;SDS011;4950;46.042;14.472;2023-07-02T04:22:50;13.82;;;7.78;;
9821;SDS011;4950;46.042;14.472;2023-07-02T04:25:17;12.40;;;7.40;;
9821;SDS011;4950;46.042;14.472;2023-07-02T04:27:44;12.25;;;7.80;;
9821;SDS011;4950;46.042;14.472;2023-07-02T04:30:12;15.02;;;7.85;;
9821;SDS011;4950;46.042;14.472;2023-07-02T04:32:39;12.68;;;7.75;;
9821;SDS011;4950;46.042;14.472;2023-07-02T04:35:07;12.85;;;8.73;;
9821;SDS011;4950;46.042;14.472;2023-07-02T04:37:34;11.75;;;8.00;;
9821;SDS011;4950;46.042;14.472;2023-07-02T04:40:01;11.80;;;7.90;;
9821;SDS011;4950;46.042;14.472;2023-07-02T04:42:29;10.00;;;6.68;;
9821;SDS011;4950;46.042;14.472;2023-07-02T04:44:57;10.52;;;6.07;;
9821;SDS011;4950;46.042;14.472;2023-07-02T04:47:29;10.23;;;6.47;;
9821;SDS011;4950;46.042;14.472;2023-07-02T04:49:56;10.63;;;7.17;;
9821;SDS011;4950;46.042;14.472;2023-07-02T04:52:23;8.82;;;5.53;;
9821;SDS011;4950;46.042;14.472;2023-07-02T04:54:49;13.07;;;6.32;;
9821;SDS011;4950;46.042;14.472;2023-07-02T04:57:16;10.68;;;5.72;;
9821;SDS011;4950;46.042;14.472;2023-07-02T04:59:43;9.63;;;5.80;;
9821;SDS011;4950;46.042;14.472;2023-07-02T05:02:09;8.38;;;5.05;;
9821;SDS011;4950;46.042;14.472;2023-07-02T05:04:38;9.73;;;6.13;;
9821;SDS011;4950;46.042;14.472;2023-07-02T05:07:04;12.30;;;6.03;;
9821;SDS011;4950;46.042;14.472;2023-07-02T05:09:31;9.25;;;5.57;;
9821;SDS011;4950;46.042;14.472;2023-07-02T05:11:58;7.65;;;5.32;;
9821;SDS011;4950;46.042;14.472;2023-07-02T05:14:25;11.77;;;5.90;;
9821;SDS011;4950;46.042;14.472;2023-07-02T05:16:51;10.75;;;5.97;;
9821;SDS011;4950;46.042;14.472;2023-07-02T05:19:18;7.85;;;5.28;;
9821;SDS011;4950;46.042;14.472;2023-07-02T05:21:46;9.90;;;5.88;;
9821;SDS011;4950;46.042;14.472;2023-07-02T05:24:13;8.83;;;6.07;;
9821;SDS011;4950;46.042;14.472;2023-07-02T05:26:40;9.27;;;5.28;;
9821;SDS011;4950;46.042;14.472;2023-07-02T05:29:07;9.60;;;5.93;;
9821;SDS011;4950;46.042;14.472;2023-07-02T05:31:33;8.57;;;5.32;;
9821;SDS011;4950;46.042;14.472;2023-07-02T05:34:00;10.43;;;6.43;;
9821;SDS011;4950;46.042;14.472;2023-07-02T05:36:27;10.50;;;5.38;;
9821;SDS011;4950;46.042;14.472;2023-07-02T05:38:55;10.95;;;6.47;;
9821;SDS011;4950;46.042;14.472;2023-07-02T05:41:22;10.83;;;6.67;;
9821;SDS011;4950;46.042;14.472;2023-07-02T05:43:49;8.40;;;5.53;;
9821;SDS011;4950;46.042;14.472;2023-07-02T05:46:15;11.88;;;6.18;;
9821;SDS011;4950;46.042;14.472;2023-07-02T05:48:42;11.10;;;6.00;;
9821;SDS011;4950;46.042;14.472;2023-07-02T05:51:09;8.27;;;5.75;;
9821;SDS011;4950;46.042;14.472;2023-07-02T05:53:36;11.13;;;6.60;;
9821;SDS011;4950;46.042;14.472;2023-07-02T05:56:05;11.45;;;7.60;;
9821;SDS011;4950;46.042;14.472;2023-07-02T05:58:31;9.20;;;6.63;;
9821;SDS011;4950;46.042;14.472;2023-07-02T06:00:58;9.63;;;6.63;;
9821;SDS011;4950;46.042;14.472;2023-07-02T06:03:26;11.95;;;7.55;;
9821;SDS011;4950;46.042;14.472;2023-07-02T06:05:53;9.05;;;6.63;;
9821;SDS011;4950;46.042;14.472;2023-07-02T06:08:19;14.00;;;6.63;;
9821;SDS011;4950;46.042;14.472;2023-07-02T06:10:47;11.23;;;7.38;;
9821;SDS011;4950;46.042;14.472;2023-07-02T06:13:15;10.38;;;7.78;;
9821;SDS011;4950;46.042;14.472;2023-07-02T06:15:42;13.38;;;7.85;;
9821;SDS011;4950;46.042;14.472;2023-07-02T06:18:10;11.48;;;7.05;;
9821;SDS011;4950;46.042;14.472;2023-07-02T06:20:36;12.18;;;7.50;;
9821;SDS011;4950;46.042;14.472;2023-07-02T06:23:03;11.38;;;7.47;;
9821;SDS011;4950;46.042;14.472;2023-07-02T06:25:30;12.80;;;8.00;;
9821;SDS011;4950;46.042;14.472;2023-07-02T06:27:57;12.50;;;7.57;;
9821;SDS011;4950;46.042;14.472;2023-07-02T06:30:25;12.85;;;8.50;;
9821;SDS011;4950;46.042;14.472;2023-07-02T06:32:53;12.60;;;8.30;;
9821;SDS011;4950;46.042;14.472;2023-07-02T06:35:20;15.27;;;8.90;;
9821;SDS011;4950;46.042;14.472;2023-07-02T06:37:46;11.60;;;8.20;;
9821;SDS011;4950;46.042;14.472;2023-07-02T06:40:13;13.40;;;8.23;;
9821;SDS011;4950;46.042;14.472;2023-07-02T06:42:40;13.00;;;8.85;;
9821;SDS011;4950;46.042;14.472;2023-07-02T06:45:07;12.48;;;8.45;;
9821;SDS011;4950;46.042;14.472;2023-07-02T06:47:35;11.93;;;8.20;;
9821;SDS011;4950;46.042;14.472;2023-07-02T06:50:02;11.45;;;7.78;;
9821;SDS011;4950;46.042;14.472;2023-07-02T06:52:29;10.45;;;7.35;;
9821;SDS011;4950;46.042;14.472;2023-07-02T06:54:56;14.50;;;9.23;;
9821;SDS011;4950;46.042;14.472;2023-07-02T06:57:23;9.70;;;7.15;;
9821;SDS011;4950;46.042;14.472;2023-07-02T06:59:49;11.93;;;7.28;;
9821;SDS011;4950;46.042;14.472;2023-07-02T07:02:16;11.68;;;8.07;;
9821;SDS011;4950;46.042;14.472;2023-07-02T07:04:44;9.63;;;6.72;;
9821;SDS011;4950;46.042;14.472;2023-07-02T07:07:11;11.75;;;7.88;;
9821;SDS011;4950;46.042;14.472;2023-07-02T07:09:38;10.43;;;7.75;;
9821;SDS011;4950;46.042;14.472;2023-07-02T07:12:05;10.38;;;7.25;;
9821;SDS011;4950;46.042;14.472;2023-07-02T07:14:32;11.30;;;7.75;;
9821;SDS011;4950;46.042;14.472;2023-07-02T07:16:59;11.90;;;8.60;;
9821;SDS011;4950;46.042;14.472;2023-07-02T07:19:26;12.00;;;7.00;;
9821;SDS011;4950;46.042;14.472;2023-07-02T07:21:54;11.85;;;8.02;;
9821;SDS011;4950;46.042;14.472;2023-07-02T07:24:21;10.77;;;7.40;;
9821;SDS011;4950;46.042;14.472;2023-07-02T07:26:47;10.05;;;7.30;;
9821;SDS011;4950;46.042;14.472;2023-07-02T07:29:14;10.65;;;7.03;;
9821;SDS011;4950;46.042;14.472;2023-07-02T07:31:41;10.93;;;6.22;;
9821;SDS011;4950;46.042;14.472;2023-07-02T07:34:08;10.88;;;6.82;;
9821;SDS011;4950;46.042;14.472;2023-07-02T07:36:36;11.68;;;7.88;;
9821;SDS011;4950;46.042;14.472;2023-07-02T07:39:04;11.98;;;7.47;;
9821;SDS011;4950;46.042;14.472;2023-07-02T07:41:31;16.00;;;7.40;;
9821;SDS011;4950;46.042;14.472;2023-07-02T07:43:58;11.93;;;7.78;;
9821;SDS011;4950;46.042;14.472;2023-07-02T07:46:26;10.00;;;6.72;;
9821;SDS011;4950;46.042;14.472;2023-07-02T07:48:53;12.70;;;7.65;;
9821;SDS011;4950;46.042;14.472;2023-07-02T07:51:19;8.43;;;6.15;;
9821;SDS011;4950;46.042;14.472;2023-07-02T07:53:46;9.85;;;6.28;;
9821;SDS011;4950;46.042;14.472;2023-07-02T07:56:14;9.20;;;6.00;;
9821;SDS011;4950;46.042;14.472;2023-07-02T07:58:43;9.10;;;6.35;;
9821;SDS011;4950;46.042;14.472;2023-07-02T08:01:10;12.60;;;7.68;;
9821;SDS011;4950;46.042;14.472;2023-07-02T08:03:37;11.02;;;8.18;;
9821;SDS011;4950;46.042;14.472;2023-07-02T08:06:04;9.52;;;6.70;;
9821;SDS011;4950;46.042;14.472;2023-07-02T08:08:31;10.25;;;7.43;;
9821;SDS011;4950;46.042;14.472;2023-07-02T08:10:58;9.65;;;6.57;;
9821;SDS011;4950;46.042;14.472;2023-07-02T08:13:26;10.18;;;7.43;;
9821;SDS011;4950;46.042;14.472;2023-07-02T08:15:53;9.32;;;6.25;;
9821;SDS011;4950;46.042;14.472;2023-07-02T08:18:20;12.90;;;6.68;;
9821;SDS011;4950;46.042;14.472;2023-07-02T08:23:17;9.30;;;6.57;;
9821;SDS011;4950;46.042;14.472;2023-07-02T08:25:44;8.75;;;6.15;;
9821;SDS011;4950;46.042;14.472;2023-07-02T08:28:11;8.73;;;6.18;;
9821;SDS011;4950;46.042;14.472;2023-07-02T08:30:39;8.57;;;5.88;;
9821;SDS011;4950;46.042;14.472;2023-07-02T08:33:06;12.73;;;6.57;;
9821;SDS011;4950;46.042;14.472;2023-07-02T08:35:33;12.18;;;6.57;;
9821;SDS011;4950;46.042;14.472;2023-07-02T08:37:59;9.82;;;6.22;;
9821;SDS011;4950;46.042;14.472;2023-07-02T08:40:26;10.57;;;7.28;;
9821;SDS011;4950;46.042;14.472;2023-07-02T08:42:53;10.57;;;6.65;;
9821;SDS011;4950;46.042;14.472;2023-07-02T08:45:21;9.35;;;6.15;;
9821;SDS011;4950;46.042;14.472;2023-07-02T08:47:51;13.45;;;5.70;;
9821;SDS011;4950;46.042;14.472;2023-07-02T08:50:21;9.95;;;5.93;;
9821;SDS011;4950;46.042;14.472;2023-07-02T08:52:48;9.15;;;6.15;;
9821;SDS011;4950;46.042;14.472;2023-07-02T08:55:15;8.20;;;5.63;;
9821;SDS011;4950;46.042;14.472;2023-07-02T08:57:42;8.40;;;5.72;;
9821;SDS011;4950;46.042;14.472;2023-07-02T09:00:15;8.07;;;5.90;;
9821;SDS011;4950;46.042;14.472;2023-07-02T09:02:42;9.20;;;6.35;;
9821;SDS011;4950;46.042;14.472;2023-07-02T09:05:11;12.63;;;6.53;;
9821;SDS011;4950;46.042;14.472;2023-07-02T09:07:44;7.80;;;5.60;;
9821;SDS011;4950;46.042;14.472;2023-07-02T09:10:12;10.52;;;5.25;;
9821;SDS011;4950;46.042;14.472;2023-07-02T09:12:39;9.50;;;5.90;;
9821;SDS011;4950;46.042;14.472;2023-07-02T09:15:06;8.85;;;5.95;;
9821;SDS011;4950;46.042;14.472;2023-07-02T09:17:33;10.23;;;6.30;;
9821;SDS011;4950;46.042;14.472;2023-07-02T09:20:02;9.90;;;6.65;;
9821;SDS011;4950;46.042;14.472;2023-07-02T09:22:33;9.95;;;6.63;;
9821;SDS011;4950;46.042;14.472;2023-07-02T09:25:00;10.98;;;6.68;;
9821;SDS011;4950;46.042;14.472;2023-07-02T09:27:34;9.57;;;6.30;;
9821;SDS011;4950;46.042;14.472;2023-07-02T09:30:05;9.40;;;6.15;;
9821;SDS011;4950;46.042;14.472;2023-07-02T09:32:33;9.32;;;5.35;;
9821;SDS011;4950;46.042;14.472;2023-07-02T09:35:00;8.43;;;5.75;;
9821;SDS011;4950;46.042;14.472;2023-07-02T09:37:28;7.78;;;5.05;;
9821;SDS011;4950;46.042;14.472;2023-07-02T09:39:56;7.65;;;5.15;;
9821;SDS011;4950;46.042;14.472;2023-07-02T09:42:24;7.60;;;4.97;;
9821;SDS011;4950;46.042;14.472;2023-07-02T09:44:52;6.90;;;4.90;;
9821;SDS011;4950;46.042;14.472;2023-07-02T09:47:21;6.70;;;4.25;;
9821;SDS011;4950;46.042;14.472;2023-07-02T09:49:52;6.15;;;3.85;;
9821;SDS011;4950;46.042;14.472;2023-07-02T09:54:48;7.90;;;4.22;;
9821;SDS011;4950;46.042;14.472;2023-07-02T09:57:16;8.50;;;4.50;;
9821;SDS011;4950;46.042;14.472;2023-07-02T09:59:43;5.70;;;3.08;;
9821;SDS011;4950;46.042;14.472;2023-07-02T10:02:10;6.60;;;4.40;;
9821;SDS011;4950;46.042;14.472;2023-07-02T10:07:06;6.80;;;4.45;;
9821;SDS011;4950;46.042;14.472;2023-07-02T10:09:36;6.68;;;3.88;;
9821;SDS011;4950;46.042;14.472;2023-07-02T10:12:21;6.05;;;4.10;;
9821;SDS011;4950;46.042;14.472;2023-07-02T10:14:49;6.43;;;4.03;;
9821;SDS011;4950;46.042;14.472;2023-07-02T10:17:24;7.10;;;4.60;;
9821;SDS011;4950;46.042;14.472;2023-07-02T10:19:56;7.63;;;4.97;;
9821;SDS011;4950;46.042;14.472;2023-07-02T10:22:23;7.47;;;4.68;;
9821;SDS011;4950;46.042;14.472;2023-07-02T10:24:51;7.72;;;4.70;;
9821;SDS011;4950;46.042;14.472;2023-07-02T10:29:50;9.90;;;5.90;;
9821;SDS011;4950;46.042;14.472;2023-07-02T10:32:25;7.95;;;5.13;;
9821;SDS011;4950;46.042;14.472;2023-07-02T10:34:53;8.90;;;5.20;;
9821;SDS011;4950;46.042;14.472;2023-07-02T10:37:20;8.70;;;5.55;;
9821;SDS011;4950;46.042;14.472;2023-07-02T10:39:47;7.32;;;4.85;;
9821;SDS011;4950;46.042;14.472;2023-07-02T10:42:14;8.23;;;5.25;;
9821;SDS011;4950;46.042;14.472;2023-07-02T10:44:48;9.48;;;5.63;;
9821;SDS011;4950;46.042;14.472;2023-07-02T10:47:16;8.10;;;5.40;;
9821;SDS011;4950;46.042;14.472;2023-07-02T10:49:43;12.45;;;5.32;;
9821;SDS011;4950;46.042;14.472;2023-07-02T10:52:10;8.23;;;5.25;;
9821;SDS011;4950;46.042;14.472;2023-07-02T10:54:40;8.73;;;5.28;;
9821;SDS011;4950;46.042;14.472;2023-07-02T10:57:08;9.05;;;5.18;;
9821;SDS011;4950;46.042;14.472;2023-07-02T10:59:36;7.55;;;4.43;;
9821;SDS011;4950;46.042;14.472;2023-07-02T11:02:05;8.50;;;4.72;;
9821;SDS011;4950;46.042;14.472;2023-07-02T11:06:59;7.95;;;4.47;;
9821;SDS011;4950;46.042;14.472;2023-07-02T11:09:26;8.30;;;4.80;;
9821;SDS011;4950;46.042;14.472;2023-07-02T11:11:53;8.48;;;4.78;;
9821;SDS011;4950;46.042;14.472;2023-07-02T11:16:54;6.93;;;4.50;;
9821;SDS011;4950;46.042;14.472;2023-07-02T11:19:24;7.40;;;4.80;;
9821;SDS011;4950;46.042;14.472;2023-07-02T11:21:51;7.72;;;4.03;;
9821;SDS011;4950;46.042;14.472;2023-07-02T11:24:26;7.03;;;3.50;;
9821;SDS011;4950;46.042;14.472;2023-07-02T11:26:54;6.85;;;3.50;;
9821;SDS011;4950;46.042;14.472;2023-07-02T11:29:21;5.57;;;3.25;;
9821;SDS011;4950;46.042;14.472;2023-07-02T11:31:48;6.80;;;4.30;;
9821;SDS011;4950;46.042;14.472;2023-07-02T11:34:15;7.47;;;4.65;;
9821;SDS011;4950;46.042;14.472;2023-07-02T11:36:44;6.72;;;3.83;;
9821;SDS011;4950;46.042;14.472;2023-07-02T11:41:39;4.90;;;3.27;;
9821;SDS011;4950;46.042;14.472;2023-07-02T11:44:06;6.05;;;3.60;;
9821;SDS011;4950;46.042;14.472;2023-07-02T11:46:34;5.45;;;3.38;;
9821;SDS011;4950;46.042;14.472;2023-07-02T11:49:01;6.50;;;3.30;;
9821;SDS011;4950;46.042;14.472;2023-07-02T11:53:57;5.32;;;3.60;;
9821;SDS011;4950;46.042;14.472;2023-07-02T11:56:24;5.93;;;3.55;;
9821;SDS011;4950;46.042;14.472;2023-07-02T11:58:51;6.18;;;3.63;;
9821;SDS011;4950;46.042;14.472;2023-07-02T12:01:17;6.07;;;3.72;;
9821;SDS011;4950;46.042;14.472;2023-07-02T12:03:44;6.03;;;4.07;;
9821;SDS011;4950;46.042;14.472;2023-07-02T12:06:11;5.45;;;3.42;;
9821;SDS011;4950;46.042;14.472;2023-07-02T12:08:38;6.95;;;3.80;;
9821;SDS011;4950;46.042;14.472;2023-07-02T12:11:07;6.35;;;3.88;;
9821;SDS011;4950;46.042;14.472;2023-07-02T12:13:34;8.18;;;3.50;;
9821;SDS011;4950;46.042;14.472;2023-07-02T12:16:01;7.45;;;3.92;;
9821;SDS011;4950;46.042;14.472;2023-07-02T12:18:28;6.18;;;3.50;;
9821;SDS011;4950;46.042;14.472;2023-07-02T12:20:55;5.15;;;3.30;;
9821;SDS011;4950;46.042;14.472;2023-07-02T12:23:22;5.13;;;3.28;;
9821;SDS011;4950;46.042;14.472;2023-07-02T12:25:49;6.43;;;3.40;;
9821;SDS011;4950;46.042;14.472;2023-07-02T12:28:18;6.18;;;3.70;;
9821;SDS011;4950;46.042;14.472;2023-07-02T12:30:45;5.47;;;3.50;;
9821;SDS011;4950;46.042;14.472;2023-07-02T12:33:12;5.50;;;3.35;;
9821;SDS011;4950;46.042;14.472;2023-07-02T12:35:38;4.90;;;3.17;;
9821;SDS011;4950;46.042;14.472;2023-07-02T12:38:05;4.75;;;2.92;;
9821;SDS011;4950;46.042;14.472;2023-07-02T12:40:33;4.32;;;2.80;;
9821;SDS011;4950;46.042;14.472;2023-07-02T12:43:00;5.68;;;2.78;;
9821;SDS011;4950;46.042;14.472;2023-07-02T12:45:28;5.25;;;3.33;;
9821;SDS011;4950;46.042;14.472;2023-07-02T12:47:57;5.03;;;2.60;;
9821;SDS011;4950;46.042;14.472;2023-07-02T12:50:24;4.15;;;2.78;;
9821;SDS011;4950;46.042;14.472;2023-07-02T12:52:51;4.22;;;2.67;;
9821;SDS011;4950;46.042;14.472;2023-07-02T12:55:18;4.53;;;2.72;;
9821;SDS011;4950;46.042;14.472;2023-07-02T12:57:44;4.47;;;3.00;;
9821;SDS011;4950;46.042;14.472;2023-07-02T13:00:11;6.20;;;3.25;;
9821;SDS011;4950;46.042;14.472;2023-07-02T13:02:40;6.90;;;3.97;;
9821;SDS011;4950;46.042;14.472;2023-07-02T13:05:07;6.00;;;3.50;;
9821;SDS011;4950;46.042;14.472;2023-07-02T13:07:33;6.28;;;3.88;;
9821;SDS011;4950;46.042;14.472;2023-07-02T13:10:00;7.18;;;3.42;;
9821;SDS011;4950;46.042;14.472;2023-07-02T13:12:27;5.43;;;3.40;;
9821;SDS011;4950;46.042;14.472;2023-07-02T13:14:54;5.68;;;3.50;;
9821;SDS011;4950;46.042;14.472;2023-07-02T13:17:20;5.78;;;3.70;;
9821;SDS011;4950;46.042;14.472;2023-07-02T13:19:49;7.22;;;3.70;;
9821;SDS011;4950;46.042;14.472;2023-07-02T13:22:16;5.65;;;3.42;;
9821;SDS011;4950;46.042;14.472;2023-07-02T13:24:42;6.43;;;3.42;;
9821;SDS011;4950;46.042;14.472;2023-07-02T13:27:11;6.80;;;3.70;;
9821;SDS011;4950;46.042;14.472;2023-07-02T13:29:40;6.55;;;3.42;;
9821;SDS011;4950;46.042;14.472;2023-07-02T13:32:07;6.10;;;3.40;;
9821;SDS011;4950;46.042;14.472;2023-07-02T13:34:34;5.30;;;3.53;;
9821;SDS011;4950;46.042;14.472;2023-07-02T13:37:02;5.18;;;3.03;;
9821;SDS011;4950;46.042;14.472;2023-07-02T13:39:29;4.78;;;3.08;;
9821;SDS011;4950;46.042;14.472;2023-07-02T13:41:56;5.38;;;3.20;;
9821;SDS011;4950;46.042;14.472;2023-07-02T13:44:23;4.65;;;3.00;;
9821;SDS011;4950;46.042;14.472;2023-07-02T13:46:50;5.45;;;3.28;;
9821;SDS011;4950;46.042;14.472;2023-07-02T13:49:18;4.30;;;2.70;;
9821;SDS011;4950;46.042;14.472;2023-07-02T13:51:46;5.13;;;3.20;;
9821;SDS011;4950;46.042;14.472;2023-07-02T13:56:43;5.15;;;3.35;;
9821;SDS011;4950;46.042;14.472;2023-07-02T13:59:12;4.78;;;3.28;;
9821;SDS011;4950;46.042;14.472;2023-07-02T14:01:39;5.80;;;3.60;;
9821;SDS011;4950;46.042;14.472;2023-07-02T14:04:06;4.53;;;2.80;;
9821;SDS011;4950;46.042;14.472;2023-07-02T14:06:33;5.85;;;3.22;;
9821;SDS011;4950;46.042;14.472;2023-07-02T14:09:00;4.93;;;3.20;;
9821;SDS011;4950;46.042;14.472;2023-07-02T14:11:27;5.28;;;3.30;;
9821;SDS011;4950;46.042;14.472;2023-07-02T14:13:54;5.83;;;3.33;;
9821;SDS011;4950;46.042;14.472;2023-07-02T14:16:23;5.90;;;3.58;;
9821;SDS011;4950;46.042;14.472;2023-07-02T14:18:50;5.13;;;3.25;;
9821;SDS011;4950;46.042;14.472;2023-07-02T14:21:16;5.68;;;3.65;;
9821;SDS011;4950;46.042;14.472;2023-07-02T14:23:43;7.47;;;3.55;;
9821;SDS011;4950;46.042;14.472;2023-07-02T14:26:10;5.20;;;3.38;;
9821;SDS011;4950;46.042;14.472;2023-07-02T14:28:37;5.00;;;3.15;;
9821;SDS011;4950;46.042;14.472;2023-07-02T14:31:05;5.72;;;3.30;;
9821;SDS011;4950;46.042;14.472;2023-07-02T14:33:34;5.72;;;3.42;;
9821;SDS011;4950;46.042;14.472;2023-07-02T14:36:02;5.60;;;3.53;;
9821;SDS011;4950;46.042;14.472;2023-07-02T14:38:30;5.65;;;3.70;;
9821;SDS011;4950;46.042;14.472;2023-07-02T14:40:58;5.72;;;3.75;;
9821;SDS011;4950;46.042;14.472;2023-07-02T14:43:26;6.25;;;3.47;;
9821;SDS011;4950;46.042;14.472;2023-07-02T14:45:56;7.47;;;3.60;;
9821;SDS011;4950;46.042;14.472;2023-07-02T14:48:25;8.15;;;3.67;;
9821;SDS011;4950;46.042;14.472;2023-07-02T14:50:55;5.17;;;3.10;;
9821;SDS011;4950;46.042;14.472;2023-07-02T14:53:23;5.32;;;2.95;;
9821;SDS011;4950;46.042;14.472;2023-07-02T14:55:53;5.15;;;3.53;;
9821;SDS011;4950;46.042;14.472;2023-07-02T14:58:21;4.88;;;2.95;;
9821;SDS011;4950;46.042;14.472;2023-07-02T15:00:49;6.55;;;3.40;;
9821;SDS011;4950;46.042;14.472;2023-07-02T15:03:18;5.68;;;3.47;;
9821;SDS011;4950;46.042;14.472;2023-07-02T15:05:46;5.18;;;3.30;;
9821;SDS011;4950;46.042;14.472;2023-07-02T15:08:15;5.28;;;3.72;;
9821;SDS011;4950;46.042;14.472;2023-07-02T15:10:45;5.78;;;3.85;;
9821;SDS011;4950;46.042;14.472;2023-07-02T15:13:12;6.63;;;3.80;;
9821;SDS011;4950;46.042;14.472;2023-07-02T15:15:39;9.80;;;4.47;;
9821;SDS011;4950;46.042;14.472;2023-07-02T15:18:06;11.02;;;4.60;;
9821;SDS011;4950;46.042;14.472;2023-07-02T15:20:34;10.68;;;4.78;;